sensor_id;sensor_type;location;lat;lon;timestamp;temperature;humidity
27697;DHT22;15105;56.514;21.002;2022-08-11T00:01:26;14.80;99.90
27697;DHT22;15105;56.514;21.002;2022-08-11T00:03:58;14.70;99.90
27697;DHT22;15105;56.514;21.002;2022-08-11T00:06:36;14.70;99.90
27697;DHT22;15105;56.514;21.002;2022-08-11T00:09:31;14.70;99.90
27697;DHT22;15105;56.514;21.002;2022-08-11T00:12:15;14.80;99.90
27697;DHT22;15105;56.514;21.002;2022-08-11T00:14:44;14.80;99.90
27697;DHT22;15105;56.514;21.002;2022-08-11T00:17:14;14.80;99.90
27697;DHT22;15105;56.514;21.002;2022-08-11T00:19:44;14.80;99.90
27697;DHT22;15105;56.514;21.002;2022-08-11T00:22:33;14.80;99.90
27697;DHT22;15105;56.514;21.002;2022-08-11T00:25:18;14.70;99.90
27697;DHT22;15105;56.514;21.002;2022-08-11T00:27:47;14.70;99.90
27697;DHT22;15105;56.514;21.002;2022-08-11T00:30:14;14.70;99.90
27697;DHT22;15105;56.514;21.002;2022-08-11T00:32:44;14.70;99.90
27697;DHT22;15105;56.514;21.002;2022-08-11T00:35:15;14.60;99.90
27697;DHT22;15105;56.514;21.002;2022-08-11T00:38:03;14.60;99.90
27697;DHT22;15105;56.514;21.002;2022-08-11T00:40:43;14.50;99.90
27697;DHT22;15105;56.514;21.002;2022-08-11T00:43:21;14.60;99.90
27697;DHT22;15105;56.514;21.002;2022-08-11T00:49:23;14.50;99.90
27697;DHT22;15105;56.514;21.002;2022-08-11T01:09:45;14.60;99.90
27697;DHT22;15105;56.514;21.002;2022-08-11T01:15:23;14.60;99.90
27697;DHT22;15105;56.514;21.002;2022-08-11T01:52:27;14.30;99.90
27697;DHT22;15105;56.514;21.002;2022-08-11T01:55:09;14.30;99.90
27697;DHT22;15105;56.514;21.002;2022-08-11T01:57:58;14.20;99.90
27697;DHT22;15105;56.514;21.002;2022-08-11T02:00:29;14.20;99.90
27697;DHT22;15105;56.514;21.002;2022-08-11T02:03:15;14.20;99.90
27697;DHT22;15105;56.514;21.002;2022-08-11T02:06:13;14.20;99.90
27697;DHT22;15105;56.514;21.002;2022-08-11T02:09:44;14.20;99.90
27697;DHT22;15105;56.514;21.002;2022-08-11T02:17:56;14.20;99.90
27697;DHT22;15105;56.514;21.002;2022-08-11T02:20:42;14.10;99.90
27697;DHT22;15105;56.514;21.002;2022-08-11T02:23:38;14.10;99.90
27697;DHT22;15105;56.514;21.002;2022-08-11T02:26:47;14.20;99.90
27697;DHT22;15105;56.514;21.002;2022-08-11T02:29:24;14.10;99.90
27697;DHT22;15105;56.514;21.002;2022-08-11T02:32:19;14.20;99.90
27697;DHT22;15105;56.514;21.002;2022-08-11T02:38:36;14.20;99.90
27697;DHT22;15105;56.514;21.002;2022-08-11T02:41:07;14.20;99.90
27697;DHT22;15105;56.514;21.002;2022-08-11T02:44:29;14.20;99.90
27697;DHT22;15105;56.514;21.002;2022-08-11T02:47:26;14.20;99.90
27697;DHT22;15105;56.514;21.002;2022-08-11T02:50:19;14.20;99.90
27697;DHT22;15105;56.514;21.002;2022-08-11T02:53:05;14.20;99.90
27697;DHT22;15105;56.514;21.002;2022-08-11T02:55:53;14.20;99.90
27697;DHT22;15105;56.514;21.002;2022-08-11T02:58:48;14.30;99.90
27697;DHT22;15105;56.514;21.002;2022-08-11T03:01:57;14.30;99.90
27697;DHT22;15105;56.514;21.002;2022-08-11T03:04:44;14.30;99.90
27697;DHT22;15105;56.514;21.002;2022-08-11T03:10:27;14.30;99.90
27697;DHT22;15105;56.514;21.002;2022-08-11T03:19:21;14.30;99.90
27697;DHT22;15105;56.514;21.002;2022-08-11T03:22:11;14.30;99.90
27697;DHT22;15105;56.514;21.002;2022-08-11T03:28:38;14.30;99.90
27697;DHT22;15105;56.514;21.002;2022-08-11T03:33:53;14.30;99.90
27697;DHT22;15105;56.514;21.002;2022-08-11T03:39:53;14.30;99.90
27697;DHT22;15105;56.514;21.002;2022-08-11T03:42:42;14.40;99.90
27697;DHT22;15105;56.514;21.002;2022-08-11T03:45:25;14.40;99.90
27697;DHT22;15105;56.514;21.002;2022-08-11T03:48:20;14.50;99.90
27697;DHT22;15105;56.514;21.002;2022-08-11T03:51:03;14.50;99.90
27697;DHT22;15105;56.514;21.002;2022-08-11T04:16:42;20.70;99.90
27697;DHT22;15105;56.514;21.002;2022-08-11T04:30:10;21.40;99.90
27697;DHT22;15105;56.514;21.002;2022-08-11T04:35:52;19.60;99.90
27697;DHT22;15105;56.514;21.002;2022-08-11T04:39:03;19.00;99.90
27697;DHT22;15105;56.514;21.002;2022-08-11T04:54:28;21.80;99.90
27697;DHT22;15105;56.514;21.002;2022-08-11T04:57:40;23.50;99.90
27697;DHT22;15105;56.514;21.002;2022-08-11T05:04:03;25.80;99.90
27697;DHT22;15105;56.514;21.002;2022-08-11T05:12:29;23.80;99.90
27697;DHT22;15105;56.514;21.002;2022-08-11T05:14:58;22.60;99.90
27697;DHT22;15105;56.514;21.002;2022-08-11T05:18:02;21.80;99.90
27697;DHT22;15105;56.514;21.002;2022-08-11T05:20:54;21.00;99.90
27697;DHT22;15105;56.514;21.002;2022-08-11T05:23:53;20.60;99.90
27697;DHT22;15105;56.514;21.002;2022-08-11T05:26:45;20.20;99.90
27697;DHT22;15105;56.514;21.002;2022-08-11T05:29:44;19.90;99.90
27697;DHT22;15105;56.514;21.002;2022-08-11T05:32:41;19.80;99.90
27697;DHT22;15105;56.514;21.002;2022-08-11T05:35:54;19.80;99.90
27697;DHT22;15105;56.514;21.002;2022-08-11T05:38:33;19.70;99.90
27697;DHT22;15105;56.514;21.002;2022-08-11T05:41:23;19.60;99.90
27697;DHT22;15105;56.514;21.002;2022-08-11T05:44:09;19.70;99.90
27697;DHT22;15105;56.514;21.002;2022-08-11T05:46:56;19.60;99.90
27697;DHT22;15105;56.514;21.002;2022-08-11T05:49:49;19.60;99.90
27697;DHT22;15105;56.514;21.002;2022-08-11T05:52:45;19.60;99.90
27697;DHT22;15105;56.514;21.002;2022-08-11T05:55:42;19.60;99.90
27697;DHT22;15105;56.514;21.002;2022-08-11T05:58:43;19.60;99.90
27697;DHT22;15105;56.514;21.002;2022-08-11T06:01:13;19.60;99.90
27697;DHT22;15105;56.514;21.002;2022-08-11T06:03:43;19.60;99.90
27697;DHT22;15105;56.514;21.002;2022-08-11T06:06:30;19.50;99.90
27697;DHT22;15105;56.514;21.002;2022-08-11T06:08:58;19.60;99.90
27697;DHT22;15105;56.514;21.002;2022-08-11T06:11:27;19.50;99.90
27697;DHT22;15105;56.514;21.002;2022-08-11T06:14:09;19.50;99.90
27697;DHT22;15105;56.514;21.002;2022-08-11T06:16:37;19.60;99.90
27697;DHT22;15105;56.514;21.002;2022-08-11T06:19:07;19.60;99.90
27697;DHT22;15105;56.514;21.002;2022-08-11T06:21:35;19.60;99.90
27697;DHT22;15105;56.514;21.002;2022-08-11T06:24:14;19.60;99.90
27697;DHT22;15105;56.514;21.002;2022-08-11T06:26:50;19.50;99.90
27697;DHT22;15105;56.514;21.002;2022-08-11T06:29:46;19.60;99.90
27697;DHT22;15105;56.514;21.002;2022-08-11T06:32:31;19.50;99.90
27697;DHT22;15105;56.514;21.002;2022-08-11T06:40:57;19.60;99.90
27697;DHT22;15105;56.514;21.002;2022-08-11T06:46:33;19.60;99.90
27697;DHT22;15105;56.514;21.002;2022-08-11T06:49:06;19.60;99.90
27697;DHT22;15105;56.514;21.002;2022-08-11T06:51:55;19.60;99.90
27697;DHT22;15105;56.514;21.002;2022-08-11T06:54:39;19.70;99.90
27697;DHT22;15105;56.514;21.002;2022-08-11T06:57:13;19.60;99.90
27697;DHT22;15105;56.514;21.002;2022-08-11T07:00:00;19.60;99.90
27697;DHT22;15105;56.514;21.002;2022-08-11T07:05:30;19.70;99.90
27697;DHT22;15105;56.514;21.002;2022-08-11T07:08:54;19.70;99.90
27697;DHT22;15105;56.514;21.002;2022-08-11T07:14:33;19.80;99.90
27697;DHT22;15105;56.514;21.002;2022-08-11T07:17:27;19.90;99.90
27697;DHT22;15105;56.514;21.002;2022-08-11T07:20:00;19.90;99.90
27697;DHT22;15105;56.514;21.002;2022-08-11T07:22:57;19.90;99.90
27697;DHT22;15105;56.514;21.002;2022-08-11T07:25:48;19.90;99.90
27697;DHT22;15105;56.514;21.002;2022-08-11T07:28:41;19.90;99.90
27697;DHT22;15105;56.514;21.002;2022-08-11T07:36:56;19.90;99.90
27697;DHT22;15105;56.514;21.002;2022-08-11T07:39:25;20.10;99.90
27697;DHT22;15105;56.514;21.002;2022-08-11T07:41:55;20.10;99.90
27697;DHT22;15105;56.514;21.002;2022-08-11T07:44:25;20.20;99.90
27697;DHT22;15105;56.514;21.002;2022-08-11T07:47:01;20.30;99.90
27697;DHT22;15105;56.514;21.002;2022-08-11T07:49:48;20.50;99.90
27697;DHT22;15105;56.514;21.002;2022-08-11T07:52:35;20.70;99.90
27697;DHT22;15105;56.514;21.002;2022-08-11T07:55:24;21.10;99.90
27697;DHT22;15105;56.514;21.002;2022-08-11T07:58:12;21.30;99.90
27697;DHT22;15105;56.514;21.002;2022-08-11T08:01:11;21.60;99.90
27697;DHT22;15105;56.514;21.002;2022-08-11T08:04:02;21.90;99.90
27697;DHT22;15105;56.514;21.002;2022-08-11T08:06:49;22.00;99.90
27697;DHT22;15105;56.514;21.002;2022-08-11T08:09:45;22.20;99.90
27697;DHT22;15105;56.514;21.002;2022-08-11T08:12:43;22.40;99.90
27697;DHT22;15105;56.514;21.002;2022-08-11T08:15:30;22.60;99.90
27697;DHT22;15105;56.514;21.002;2022-08-11T08:18:17;23.00;99.90
27697;DHT22;15105;56.514;21.002;2022-08-11T08:20:54;23.00;99.90
27697;DHT22;15105;56.514;21.002;2022-08-11T08:23:26;23.10;99.90
27697;DHT22;15105;56.514;21.002;2022-08-11T08:26:03;23.10;99.90
27697;DHT22;15105;56.514;21.002;2022-08-11T08:28:31;23.10;99.90
27697;DHT22;15105;56.514;21.002;2022-08-11T08:30:59;23.00;99.90
27697;DHT22;15105;56.514;21.002;2022-08-11T08:33:29;23.10;99.90
27697;DHT22;15105;56.514;21.002;2022-08-11T08:36:03;23.30;99.90
27697;DHT22;15105;56.514;21.002;2022-08-11T08:38:49;23.40;99.90
27697;DHT22;15105;56.514;21.002;2022-08-11T08:41:23;23.50;99.90
27697;DHT22;15105;56.514;21.002;2022-08-11T08:43:53;23.60;99.90
27697;DHT22;15105;56.514;21.002;2022-08-11T08:46:59;23.70;99.90
27697;DHT22;15105;56.514;21.002;2022-08-11T08:49:36;23.70;99.90
27697;DHT22;15105;56.514;21.002;2022-08-11T08:52:12;23.80;99.90
27697;DHT22;15105;56.514;21.002;2022-08-11T08:55:03;24.00;99.90
27697;DHT22;15105;56.514;21.002;2022-08-11T08:57:36;23.90;99.90
27697;DHT22;15105;56.514;21.002;2022-08-11T09:00:06;24.00;99.90
27697;DHT22;15105;56.514;21.002;2022-08-11T09:02:40;24.10;99.90
27697;DHT22;15105;56.514;21.002;2022-08-11T09:05:11;24.10;99.90
27697;DHT22;15105;56.514;21.002;2022-08-11T09:07:39;24.10;99.90
27697;DHT22;15105;56.514;21.002;2022-08-11T09:10:10;24.00;99.90
27697;DHT22;15105;56.514;21.002;2022-08-11T09:12:40;24.00;99.90
27697;DHT22;15105;56.514;21.002;2022-08-11T09:15:11;23.80;99.90
27697;DHT22;15105;56.514;21.002;2022-08-11T09:20:21;23.80;99.90
27697;DHT22;15105;56.514;21.002;2022-08-11T09:22:54;24.00;99.90
27697;DHT22;15105;56.514;21.002;2022-08-11T09:26:01;24.00;99.90
27697;DHT22;15105;56.514;21.002;2022-08-11T09:28:47;24.00;99.90
27697;DHT22;15105;56.514;21.002;2022-08-11T09:31:16;24.00;99.90
27697;DHT22;15105;56.514;21.002;2022-08-11T09:33:47;24.00;99.90
27697;DHT22;15105;56.514;21.002;2022-08-11T09:36:17;23.90;99.90
27697;DHT22;15105;56.514;21.002;2022-08-11T09:39:08;23.90;99.90
27697;DHT22;15105;56.514;21.002;2022-08-11T09:41:59;23.80;99.90
27697;DHT22;15105;56.514;21.002;2022-08-11T09:44:31;23.90;99.90
27697;DHT22;15105;56.514;21.002;2022-08-11T09:47:22;24.00;99.90
27697;DHT22;15105;56.514;21.002;2022-08-11T09:49:54;24.00;99.90
27697;DHT22;15105;56.514;21.002;2022-08-11T09:52:23;23.90;99.90
27697;DHT22;15105;56.514;21.002;2022-08-11T09:54:51;24.00;99.90
27697;DHT22;15105;56.514;21.002;2022-08-11T09:57:22;24.00;99.90
27697;DHT22;15105;56.514;21.002;2022-08-11T10:00:11;24.00;99.90
27697;DHT22;15105;56.514;21.002;2022-08-11T10:02:46;24.00;99.90
27697;DHT22;15105;56.514;21.002;2022-08-11T10:05:17;24.10;99.90
27697;DHT22;15105;56.514;21.002;2022-08-11T10:08:05;24.10;99.90
27697;DHT22;15105;56.514;21.002;2022-08-11T10:10:51;24.10;99.90
27697;DHT22;15105;56.514;21.002;2022-08-11T10:13:21;24.20;99.90
27697;DHT22;15105;56.514;21.002;2022-08-11T10:16:12;24.20;99.90
27697;DHT22;15105;56.514;21.002;2022-08-11T10:18:43;24.20;99.90
27697;DHT22;15105;56.514;21.002;2022-08-11T10:21:41;24.20;99.90
27697;DHT22;15105;56.514;21.002;2022-08-11T10:24:10;24.00;99.90
27697;DHT22;15105;56.514;21.002;2022-08-11T10:26:57;24.00;99.90
27697;DHT22;15105;56.514;21.002;2022-08-11T10:29:27;24.00;99.90
27697;DHT22;15105;56.514;21.002;2022-08-11T10:32:24;23.90;99.90
27697;DHT22;15105;56.514;21.002;2022-08-11T10:35:29;24.00;99.90
27697;DHT22;15105;56.514;21.002;2022-08-11T10:37:58;24.00;99.90
27697;DHT22;15105;56.514;21.002;2022-08-11T10:40:38;24.10;99.90
27697;DHT22;15105;56.514;21.002;2022-08-11T10:43:09;24.10;99.90
27697;DHT22;15105;56.514;21.002;2022-08-11T10:45:43;24.00;99.90
27697;DHT22;15105;56.514;21.002;2022-08-11T10:48:34;23.90;99.90
27697;DHT22;15105;56.514;21.002;2022-08-11T10:51:03;23.90;99.90
27697;DHT22;15105;56.514;21.002;2022-08-11T10:53:47;23.90;99.90
27697;DHT22;15105;56.514;21.002;2022-08-11T10:56:38;23.90;99.90
27697;DHT22;15105;56.514;21.002;2022-08-11T10:59:26;24.00;99.90
27697;DHT22;15105;56.514;21.002;2022-08-11T11:01:56;23.90;99.90
27697;DHT22;15105;56.514;21.002;2022-08-11T11:07:20;23.80;99.90
27697;DHT22;15105;56.514;21.002;2022-08-11T11:09:55;23.80;99.90
27697;DHT22;15105;56.514;21.002;2022-08-11T11:15:10;23.90;99.90
27697;DHT22;15105;56.514;21.002;2022-08-11T11:18:07;23.90;99.90
27697;DHT22;15105;56.514;21.002;2022-08-11T11:26:04;23.60;99.90
27697;DHT22;15105;56.514;21.002;2022-08-11T11:37:43;23.60;99.90
27697;DHT22;15105;56.514;21.002;2022-08-11T11:40:30;23.60;99.90
27697;DHT22;15105;56.514;21.002;2022-08-11T11:42:59;23.70;99.90
27697;DHT22;15105;56.514;21.002;2022-08-11T11:45:26;23.70;99.90
27697;DHT22;15105;56.514;21.002;2022-08-11T11:47:56;23.70;99.90
27697;DHT22;15105;56.514;21.002;2022-08-11T11:50:31;23.70;99.90
27697;DHT22;15105;56.514;21.002;2022-08-11T11:53:03;23.70;99.90
27697;DHT22;15105;56.514;21.002;2022-08-11T11:55:34;23.80;99.90
27697;DHT22;15105;56.514;21.002;2022-08-11T11:58:03;23.80;99.90
27697;DHT22;15105;56.514;21.002;2022-08-11T12:00:51;23.60;99.90
27697;DHT22;15105;56.514;21.002;2022-08-11T12:03:40;23.40;99.90
27697;DHT22;15105;56.514;21.002;2022-08-11T12:06:11;23.30;99.90
27697;DHT22;15105;56.514;21.002;2022-08-11T12:08:41;23.20;99.90
27697;DHT22;15105;56.514;21.002;2022-08-11T12:11:10;23.10;99.90
27697;DHT22;15105;56.514;21.002;2022-08-11T12:14:01;23.20;99.90
27697;DHT22;15105;56.514;21.002;2022-08-11T12:16:38;23.30;99.90
27697;DHT22;15105;56.514;21.002;2022-08-11T12:19:12;23.30;99.90
27697;DHT22;15105;56.514;21.002;2022-08-11T12:21:41;23.30;99.90
27697;DHT22;15105;56.514;21.002;2022-08-11T12:24:31;23.20;99.90
27697;DHT22;15105;56.514;21.002;2022-08-11T12:27:18;23.00;99.90
27697;DHT22;15105;56.514;21.002;2022-08-11T12:29:54;23.00;99.90
27697;DHT22;15105;56.514;21.002;2022-08-11T12:32:27;22.80;99.90
27697;DHT22;15105;56.514;21.002;2022-08-11T12:34:55;22.80;99.90
27697;DHT22;15105;56.514;21.002;2022-08-11T12:37:27;22.70;99.90
27697;DHT22;15105;56.514;21.002;2022-08-11T12:39:59;22.70;99.90
27697;DHT22;15105;56.514;21.002;2022-08-11T12:43:07;22.90;99.90
27697;DHT22;15105;56.514;21.002;2022-08-11T12:46:28;22.80;99.90
27697;DHT22;15105;56.514;21.002;2022-08-11T12:49:03;22.90;99.90
27697;DHT22;15105;56.514;21.002;2022-08-11T12:52:18;22.80;99.90
27697;DHT22;15105;56.514;21.002;2022-08-11T12:57:34;22.90;99.90
27697;DHT22;15105;56.514;21.002;2022-08-11T13:00:21;22.90;99.90
27697;DHT22;15105;56.514;21.002;2022-08-11T13:03:09;22.80;99.90
27697;DHT22;15105;56.514;21.002;2022-08-11T13:05:57;22.70;99.90
27697;DHT22;15105;56.514;21.002;2022-08-11T13:08:26;22.80;99.90
27697;DHT22;15105;56.514;21.002;2022-08-11T13:10:57;22.70;99.90
27697;DHT22;15105;56.514;21.002;2022-08-11T13:13:45;22.50;99.90
27697;DHT22;15105;56.514;21.002;2022-08-11T13:16:23;22.40;99.90
27697;DHT22;15105;56.514;21.002;2022-08-11T13:18:51;22.30;99.90
27697;DHT22;15105;56.514;21.002;2022-08-11T13:21:20;22.20;99.90
27697;DHT22;15105;56.514;21.002;2022-08-11T13:23:52;22.30;99.90
27697;DHT22;15105;56.514;21.002;2022-08-11T13:26:33;22.40;99.90
27697;DHT22;15105;56.514;21.002;2022-08-11T13:29:18;22.60;99.90
27697;DHT22;15105;56.514;21.002;2022-08-11T13:31:46;22.50;99.90
27697;DHT22;15105;56.514;21.002;2022-08-11T13:36:49;22.30;99.90
27697;DHT22;15105;56.514;21.002;2022-08-11T13:39:20;22.30;99.90
27697;DHT22;15105;56.514;21.002;2022-08-11T13:41:51;22.30;99.90
27697;DHT22;15105;56.514;21.002;2022-08-11T13:44:19;22.20;99.90
27697;DHT22;15105;56.514;21.002;2022-08-11T13:49:46;22.10;99.90
27697;DHT22;15105;56.514;21.002;2022-08-11T13:52:18;22.20;99.90
27697;DHT22;15105;56.514;21.002;2022-08-11T13:54:46;22.30;99.90
27697;DHT22;15105;56.514;21.002;2022-08-11T13:57:14;22.40;99.90
27697;DHT22;15105;56.514;21.002;2022-08-11T14:00:08;22.40;99.90
27697;DHT22;15105;56.514;21.002;2022-08-11T14:02:54;22.30;99.90
27697;DHT22;15105;56.514;21.002;2022-08-11T14:05:36;22.30;99.90
27697;DHT22;15105;56.514;21.002;2022-08-11T14:08:15;22.20;99.90
27697;DHT22;15105;56.514;21.002;2022-08-11T14:11:06;22.30;99.90
27697;DHT22;15105;56.514;21.002;2022-08-11T14:14:18;22.20;99.90
27697;DHT22;15105;56.514;21.002;2022-08-11T14:16:47;22.20;99.90
27697;DHT22;15105;56.514;21.002;2022-08-11T14:19:19;22.30;99.90
27697;DHT22;15105;56.514;21.002;2022-08-11T14:21:50;22.20;99.90
27697;DHT22;15105;56.514;21.002;2022-08-11T14:24:41;22.20;99.90
27697;DHT22;15105;56.514;21.002;2022-08-11T14:27:10;22.00;99.90
27697;DHT22;15105;56.514;21.002;2022-08-11T14:29:58;21.90;99.90
27697;DHT22;15105;56.514;21.002;2022-08-11T14:32:26;21.90;99.90
27697;DHT22;15105;56.514;21.002;2022-08-11T14:34:53;21.80;99.90
27697;DHT22;15105;56.514;21.002;2022-08-11T14:37:26;21.80;99.90
27697;DHT22;15105;56.514;21.002;2022-08-11T14:40:00;21.80;99.90
27697;DHT22;15105;56.514;21.002;2022-08-11T14:42:48;21.80;99.90
27697;DHT22;15105;56.514;21.002;2022-08-11T14:45:32;21.80;99.90
27697;DHT22;15105;56.514;21.002;2022-08-11T14:48:25;21.90;99.90
27697;DHT22;15105;56.514;21.002;2022-08-11T14:50:53;21.70;99.90
27697;DHT22;15105;56.514;21.002;2022-08-11T14:53:21;21.70;99.90
27697;DHT22;15105;56.514;21.002;2022-08-11T14:55:50;21.70;99.90
27697;DHT22;15105;56.514;21.002;2022-08-11T14:58:38;21.70;99.90
27697;DHT22;15105;56.514;21.002;2022-08-11T15:01:05;21.70;99.90
27697;DHT22;15105;56.514;21.002;2022-08-11T15:03:53;21.80;99.90
27697;DHT22;15105;56.514;21.002;2022-08-11T15:06:40;21.80;99.90
27697;DHT22;15105;56.514;21.002;2022-08-11T15:09:09;21.80;99.90
27697;DHT22;15105;56.514;21.002;2022-08-11T15:11:36;21.70;99.90
27697;DHT22;15105;56.514;21.002;2022-08-11T15:14:23;21.70;99.90
27697;DHT22;15105;56.514;21.002;2022-08-11T15:17:10;21.70;99.90
27697;DHT22;15105;56.514;21.002;2022-08-11T15:19:40;21.70;99.90
27697;DHT22;15105;56.514;21.002;2022-08-11T15:22:28;21.70;99.90
27697;DHT22;15105;56.514;21.002;2022-08-11T15:25:13;21.60;99.90
27697;DHT22;15105;56.514;21.002;2022-08-11T15:27:42;21.60;99.90
27697;DHT22;15105;56.514;21.002;2022-08-11T15:30:29;21.60;99.90
27697;DHT22;15105;56.514;21.002;2022-08-11T15:33:17;21.50;99.90
27697;DHT22;15105;56.514;21.002;2022-08-11T15:36:23;21.40;99.90
27697;DHT22;15105;56.514;21.002;2022-08-11T15:39:20;21.30;99.90
27697;DHT22;15105;56.514;21.002;2022-08-11T15:42:12;21.30;99.90
27697;DHT22;15105;56.514;21.002;2022-08-11T15:45:03;21.30;99.90
27697;DHT22;15105;56.514;21.002;2022-08-11T15:48:02;21.30;99.90
27697;DHT22;15105;56.514;21.002;2022-08-11T15:50:40;21.30;99.90
27697;DHT22;15105;56.514;21.002;2022-08-11T15:53:16;21.30;99.90
27697;DHT22;15105;56.514;21.002;2022-08-11T15:55:44;21.30;99.90
27697;DHT22;15105;56.514;21.002;2022-08-11T15:58:14;21.30;99.90
27697;DHT22;15105;56.514;21.002;2022-08-11T16:01:41;21.30;99.90
27697;DHT22;15105;56.514;21.002;2022-08-11T16:04:29;21.20;99.90
27697;DHT22;15105;56.514;21.002;2022-08-11T16:07:04;21.20;99.90
27697;DHT22;15105;56.514;21.002;2022-08-11T16:12:24;21.00;99.90
27697;DHT22;15105;56.514;21.002;2022-08-11T16:14:57;21.10;99.90
27697;DHT22;15105;56.514;21.002;2022-08-11T16:17:56;21.00;99.90
27697;DHT22;15105;56.514;21.002;2022-08-11T16:20:27;21.00;99.90
27697;DHT22;15105;56.514;21.002;2022-08-11T16:23:04;21.00;99.90
27697;DHT22;15105;56.514;21.002;2022-08-11T16:25:33;20.90;99.90
27697;DHT22;15105;56.514;21.002;2022-08-11T16:28:22;20.90;99.90
27697;DHT22;15105;56.514;21.002;2022-08-11T16:30:50;20.90;99.90
27697;DHT22;15105;56.514;21.002;2022-08-11T16:33:19;20.80;99.90
27697;DHT22;15105;56.514;21.002;2022-08-11T16:36:10;20.80;99.90
27697;DHT22;15105;56.514;21.002;2022-08-11T16:38:59;20.80;99.90
27697;DHT22;15105;56.514;21.002;2022-08-11T16:41:30;20.70;99.90
27697;DHT22;15105;56.514;21.002;2022-08-11T16:44:18;20.70;99.90
27697;DHT22;15105;56.514;21.002;2022-08-11T16:47:13;20.70;99.90
27697;DHT22;15105;56.514;21.002;2022-08-11T16:49:49;20.70;99.90
27697;DHT22;15105;56.514;21.002;2022-08-11T16:52:20;20.70;99.90
27697;DHT22;15105;56.514;21.002;2022-08-11T16:54:48;20.70;99.90
27697;DHT22;15105;56.514;21.002;2022-08-11T16:57:25;20.60;99.90
27697;DHT22;15105;56.514;21.002;2022-08-11T17:00:15;20.60;99.90
27697;DHT22;15105;56.514;21.002;2022-08-11T17:02:52;20.60;99.90
27697;DHT22;15105;56.514;21.002;2022-08-11T17:05:50;20.60;99.90
27697;DHT22;15105;56.514;21.002;2022-08-11T17:08:45;20.60;99.90
27697;DHT22;15105;56.514;21.002;2022-08-11T17:11:39;20.50;99.90
27697;DHT22;15105;56.514;21.002;2022-08-11T17:14:31;20.50;99.90
27697;DHT22;15105;56.514;21.002;2022-08-11T17:17:06;20.50;99.90
27697;DHT22;15105;56.514;21.002;2022-08-11T17:19:41;20.50;99.90
27697;DHT22;15105;56.514;21.002;2022-08-11T17:22:30;20.50;99.90
27697;DHT22;15105;56.514;21.002;2022-08-11T17:25:17;20.40;99.90
27697;DHT22;15105;56.514;21.002;2022-08-11T17:27:46;20.40;99.90
27697;DHT22;15105;56.514;21.002;2022-08-11T17:30:14;20.30;99.90
27697;DHT22;15105;56.514;21.002;2022-08-11T17:32:47;20.30;99.90
27697;DHT22;15105;56.514;21.002;2022-08-11T17:35:40;20.20;99.90
27697;DHT22;15105;56.514;21.002;2022-08-11T17:38:14;20.20;99.90
27697;DHT22;15105;56.514;21.002;2022-08-11T17:40:47;20.10;99.90
27697;DHT22;15105;56.514;21.002;2022-08-11T17:43:34;20.10;99.90
27697;DHT22;15105;56.514;21.002;2022-08-11T17:46:20;20.00;99.90
27697;DHT22;15105;56.514;21.002;2022-08-11T17:49:08;20.00;99.90
27697;DHT22;15105;56.514;21.002;2022-08-11T17:51:36;20.00;99.90
27697;DHT22;15105;56.514;21.002;2022-08-11T17:54:26;19.90;99.90
27697;DHT22;15105;56.514;21.002;2022-08-11T17:57:13;19.90;99.90
27697;DHT22;15105;56.514;21.002;2022-08-11T18:00:01;19.90;99.90
27697;DHT22;15105;56.514;21.002;2022-08-11T18:05:20;19.80;99.90
27697;DHT22;15105;56.514;21.002;2022-08-11T18:07:50;19.70;99.90
27697;DHT22;15105;56.514;21.002;2022-08-11T18:10:40;19.70;99.90
27697;DHT22;15105;56.514;21.002;2022-08-11T18:13:29;19.60;99.90
27697;DHT22;15105;56.514;21.002;2022-08-11T18:16:17;19.60;99.90
27697;DHT22;15105;56.514;21.002;2022-08-11T18:19:05;19.60;99.90
27697;DHT22;15105;56.514;21.002;2022-08-11T18:22:02;19.50;99.90
27697;DHT22;15105;56.514;21.002;2022-08-11T18:24:54;19.50;99.90
27697;DHT22;15105;56.514;21.002;2022-08-11T18:27:43;19.40;99.90
27697;DHT22;15105;56.514;21.002;2022-08-11T18:30:33;19.40;99.90
27697;DHT22;15105;56.514;21.002;2022-08-11T18:33:40;19.30;99.90
27697;DHT22;15105;56.514;21.002;2022-08-11T18:37:00;19.30;99.90
27697;DHT22;15105;56.514;21.002;2022-08-11T18:40:02;19.20;99.90
27697;DHT22;15105;56.514;21.002;2022-08-11T18:42:57;19.20;99.90
27697;DHT22;15105;56.514;21.002;2022-08-11T18:45:51;19.20;99.90
27697;DHT22;15105;56.514;21.002;2022-08-11T18:48:47;19.20;99.90
27697;DHT22;15105;56.514;21.002;2022-08-11T18:51:45;19.10;99.90
27697;DHT22;15105;56.514;21.002;2022-08-11T18:54:35;19.10;99.90
27697;DHT22;15105;56.514;21.002;2022-08-11T18:57:23;19.10;99.90
27697;DHT22;15105;56.514;21.002;2022-08-11T19:00:21;19.00;99.90
27697;DHT22;15105;56.514;21.002;2022-08-11T19:03:09;19.00;99.90
27697;DHT22;15105;56.514;21.002;2022-08-11T19:06:00;19.00;99.90
27697;DHT22;15105;56.514;21.002;2022-08-11T19:09:12;18.90;99.90
27697;DHT22;15105;56.514;21.002;2022-08-11T19:12:00;18.90;99.90
27697;DHT22;15105;56.514;21.002;2022-08-11T19:14:48;18.80;99.90
27697;DHT22;15105;56.514;21.002;2022-08-11T19:17:37;18.80;99.90
27697;DHT22;15105;56.514;21.002;2022-08-11T19:20:26;18.80;99.90
27697;DHT22;15105;56.514;21.002;2022-08-11T19:23:18;18.80;99.90
27697;DHT22;15105;56.514;21.002;2022-08-11T19:26:05;18.80;99.90
27697;DHT22;15105;56.514;21.002;2022-08-11T19:28:53;18.70;99.90
27697;DHT22;15105;56.514;21.002;2022-08-11T19:32:02;18.60;99.90
27697;DHT22;15105;56.514;21.002;2022-08-11T19:34:48;18.60;99.90
27697;DHT22;15105;56.514;21.002;2022-08-11T19:37:37;18.60;99.90
27697;DHT22;15105;56.514;21.002;2022-08-11T19:40:23;18.60;99.90
27697;DHT22;15105;56.514;21.002;2022-08-11T19:43:10;18.60;99.90
27697;DHT22;15105;56.514;21.002;2022-08-11T19:45:59;18.50;99.90
27697;DHT22;15105;56.514;21.002;2022-08-11T19:48:51;18.50;99.90
27697;DHT22;15105;56.514;21.002;2022-08-11T19:51:38;18.50;99.90
27697;DHT22;15105;56.514;21.002;2022-08-11T19:54:27;18.50;99.90
27697;DHT22;15105;56.514;21.002;2022-08-11T19:57:14;18.50;99.90
27697;DHT22;15105;56.514;21.002;2022-08-11T20:00:09;18.40;99.90
27697;DHT22;15105;56.514;21.002;2022-08-11T20:02:57;18.40;99.90
27697;DHT22;15105;56.514;21.002;2022-08-11T20:05:46;18.40;99.90
27697;DHT22;15105;56.514;21.002;2022-08-11T20:08:34;18.30;99.90
27697;DHT22;15105;56.514;21.002;2022-08-11T20:11:26;18.30;99.90
27697;DHT22;15105;56.514;21.002;2022-08-11T20:14:16;18.30;99.90